TNCMGOOY

Guest
Details From TNCM - St Maarten - Princess Juliana Intl
To GOOY - Dakar Leopold Sedar Senghor Intl
Flight Number -
Tags generated
Created
Modified
Stats Distance 3,224 nm / 5,971 km
Max Altitude 35,000 ft / 10,668 m
Waypoints 15
Social Downloads 2
Likes 0
Share VATSIM

Download

Looking for another format? Having issues loading an existing format? Contact us
Advertisement - Login to hide

Notes

Basic altitude profile: - Ascent Rate: 2500ft/min - Ascent Speed: 250kts - Cruise Altitude: 35000ft - Cruise Speed: 420kts - Descent Rate: 1500ft/min - Descent Speed: 250kts Options: - Use NATs: yes - Use PACOTS: yes - Use low airways: yes - Use high airways: yes

Route

TNCM TOTEM A632 PISAX FIVZE L435 BUTUX UL435 PAKER 1700N03500W 1800N03000W UN741 GAMBA UR976 NARAT GOOY

ID Type Via Altitude (ft/m) Position (lat/lon) Dist (leg/tot) Name
O TNCM APT - 0 / 0 18.04089 / -63.10897 - / 0 nm St Maarten - Princess Juliana Intl
TOTEM FIX - 25,000 / 7,620 18.00000 / -61.88367 70 / 70 nm
PISAX FIX A632 (AWY-HI) 34,000 / 10,363 23.50000 / -62.54664 332 / 402 nm
FIVZE FIX - 35,000 / 10,668 25.00000 / -60.00000 166 / 568 nm
BUTUX FIX L435 (AWY-HI) 35,000 / 10,668 18.00000 / -45.38000 917 / 1486 nm
PAKER FIX UL435 (AWY-HI) 35,000 / 10,668 15.33333 / -40.00000 348 / 1834 nm
1700N03500W LATLON - 35,000 / 10,668 17.00000 / -35.00000 305 / 2140 nm
1800N03000W LATLON - 35,000 / 10,668 18.00000 / -30.00000 292 / 2432 nm
GAMBA FIX UN741 (AWY-HI) 35,000 / 10,668 18.95333 / -26.06000 231 / 2664 nm
IREDO FIX UR976 (AWY-HI) 35,000 / 10,668 17.71833 / -24.30333 124 / 2788 nm
CVS VOR UR976 (AWY-HI) 35,000 / 10,668 16.73677 / -22.95105 97 / 2886 nm SAL VOR-DME
UGAMA FIX UR976 (AWY-HI) 35,000 / 10,668 16.28667 / -21.67000 78 / 2964 nm
LUMPO FIX UR976 (AWY-HI) 33,400 / 10,180 15.68000 / -20.00139 102 / 3067 nm
NARAT FIX UR976 (AWY-HI) 23,500 / 7,163 14.94333 / -18.00000 124 / 3191 nm
O GOOY APT - 0 / 0 14.73971 / -17.49023 32 / 3223 nm Dakar Leopold Sedar Senghor Intl

Altitude Profile

Advertisement - Login to hide

Weather


0- 5 10 15 20 25 30 35+ Temperature / °C

Clouds and Precipitation
Forecast for 2018-12-13 06:00 UTC. Updated 32 minutes ago

Ground ~20,000 ft ~40,000 ft Winds

TNCM

Details ICAO TNCM (SXM)
Name Princess Juliana Int'l
Region Caribbean Netherlands, Aruba, Curaçao, Sint Maarten
Timezone Unknown
Stats Elevation 12 ft / 4 m (AMSL)
Location 18.040900° -63.108900°
Runways 1
Magnetic Variation 14.352° W

METAR

TNCM 130400Z 07005KT 9999 FEW022 25/19 Q1018 A3007

Decode

TAF

TAF TNCM 122340Z 1300/1324 08009KT P6SM FEW020 FM131400 08015KT P6SM VCSH SCT020 SCT035 FM132300 08010KT P6SM SCT018

Decode

Departure Runways

ID Width Length Bearing (true/mag) Surface Threshold Overrun Markings Lighting
10 148 ft / 45 m 7,553 ft / 2,302 m 81.44° / 95.79° ASPHALT 331 ft / 101 m 164 ft / 50 m PREC-APP EDGE THRESHOLD REIL-OMNI
28 148 ft / 45 m 7,553 ft / 2,302 m 261.45° / 275.80° ASPHALT 0 ft / 0 m 200 ft / 61 m APP EDGE THRESHOLD

GOOY

Details ICAO GOOY (DKR)
Name Dakar - Leopold Sedar Senghor Intl
Region Senegal
Timezone Africa/Dakar (UTC+0.0)
Stats Elevation 84 ft / 26 m (AMSL)
Location 14.740100° -17.490400°
Runways 2
Magnetic Variation 7.234° W

METAR

Not found

TAF

TAF GOOY 122330Z 1300/1406 36010KT 8000 NSC= TAF GOBD 122330Z 1300/1406 01012KT CAVOK

Decode

Destination Runways

ID Width Length Bearing (true/mag) Surface Threshold Overrun Markings Lighting
03 98 ft / 30 m 4,916 ft / 1,498 m 22.33° / 29.56° ASPHALT 0 ft / 0 m 98 ft / 30 m APP
18 148 ft / 45 m 11,483 ft / 3,500 m 172.61° / 179.84° ASPHALT 525 ft / 160 m 220 ft / 67 m APP EDGE THRESHOLD
21 98 ft / 30 m 4,916 ft / 1,498 m 202.33° / 209.57° ASPHALT 0 ft / 0 m 1,591 ft / 485 m APP
36 148 ft / 45 m 11,483 ft / 3,500 m 352.61° / 359.84° ASPHALT 0 ft / 0 m 213 ft / 65 m PREC-APP EDGE THRESHOLD ALSF-I

Approach Navaids

Runway Type Ident Frequency Range Bearing (true/mag) Slope Elevation
36 DME YF 110.30 MHz 18 nm / 33 km - - 73 ft / 22 m (AMSL)
36 LOC-ILS YF 110.30 MHz 18 nm / 33 km 352.33° / 359.56 ° - 65 ft / 20 m (AMSL)
36 GS YF 110.30 MHz 10 nm / 19 km 353.14° / 0.38 ° 3.01° 73 ft / 22 m (AMSL)
36 MM MM - - 352.57° / 359.81 ° - 144 ft / 44 m (AMSL)

Popular Alternatives